Climatologie pour Saint-Brevin les Pins
Jour • Résumé pour juillet 7, 2017 Système :  Métrique    Anglais   Mixte
« - 1 jour
+ 1 jour »
Jour Semaine Mois Année Personnalisé
  Maximum : Minimum : Moyenne :
Température sous abri : 27.2 °C 18.8 °C 22.2 °C
Point de rosée : 20.3 °C 16.6 °C 18.3 °C
Humidité : 91 % 61 % 79 %
Vitesse du vent : 16.1 km/h 0.0 km/h 3.9 km/h
Rafale : 24.1 km/h - -
Direction :- - SSW
Pression : 1018.8 hPa 1016.5 hPa -
Précipitations : 0.0 mm    
Historical Graphs
 
 
Tableau de données pour juillet 7, 2017
Heure Tempé Pt rosée Pression Vent Vitesse Rafale Humidité Taux pluie (/hr) Soleil
00:00 19.7 °C 17.8 °C 1017.2 hPa Calm   8.0 km/h 89 % 0.0 mm 0 W/m2
00:10 19.7 °C 17.8 °C 1017.2 hPa SW 3.2 km/h 8.0 km/h 89 % 0.0 mm 0 W/m2
00:15 19.7 °C 17.8 °C 1017.2 hPa WSW 4.8 km/h 8.0 km/h 89 % 0.0 mm 0 W/m2
00:20 19.6 °C 17.7 °C 1017.2 hPa West 6.4 km/h 8.0 km/h 89 % 0.0 mm 0 W/m2
00:25 19.6 °C 17.7 °C 1017.2 hPa West 1.6 km/h 6.4 km/h 89 % 0.0 mm 0 W/m2
00:35 19.6 °C 17.5 °C 1017.5 hPa West 4.8 km/h 9.7 km/h 88 % 0.0 mm 0 W/m2
00:40 19.6 °C 17.5 °C 1017.5 hPa WNW 4.8 km/h 9.7 km/h 88 % 0.0 mm 0 W/m2
00:45 19.5 °C 17.5 °C 1017.5 hPa Calm   8.0 km/h 88 % 0.0 mm 0 W/m2
00:50 19.5 °C 17.5 °C 1017.5 hPa Calm   8.0 km/h 88 % 0.0 mm 0 W/m2
00:55 19.5 °C 17.5 °C 1017.5 hPa WSW 1.6 km/h 6.4 km/h 88 % 0.0 mm 0 W/m2
01:00 19.5 °C 17.5 °C 1017.5 hPa Calm   6.4 km/h 88 % 0.0 mm 0 W/m2
01:05 19.5 °C 17.5 °C 1017.8 hPa WSW 4.8 km/h 4.8 km/h 88 % 0.0 mm 0 W/m2
01:10 19.4 °C 17.6 °C 1017.8 hPa WSW 6.4 km/h 6.4 km/h 89 % 0.0 mm 0 W/m2
01:15 19.5 °C 17.6 °C 1017.8 hPa West 6.4 km/h 8.0 km/h 89 % 0.0 mm 0 W/m2
01:20 19.4 °C 17.6 °C 1017.8 hPa Calm   8.0 km/h 89 % 0.0 mm 0 W/m2
01:25 19.4 °C 17.6 °C 1017.8 hPa Calm   6.4 km/h 89 % 0.0 mm 0 W/m2
01:30 19.4 °C 17.6 °C 1017.5 hPa West 1.6 km/h 6.4 km/h 89 % 0.0 mm 0 W/m2
01:35 19.4 °C 17.5 °C 1017.8 hPa WNW 1.6 km/h 6.4 km/h 89 % 0.0 mm 0 W/m2
01:40 19.3 °C 17.7 °C 1017.8 hPa Calm   6.4 km/h 90 % 0.0 mm 0 W/m2
01:45 19.3 °C 17.6 °C 1017.5 hPa NW 1.6 km/h 6.4 km/h 90 % 0.0 mm 0 W/m2
01:50 19.3 °C 17.6 °C 1017.5 hPa NW 1.6 km/h 6.4 km/h 90 % 0.0 mm 0 W/m2
01:55 19.2 °C 17.5 °C 1017.5 hPa NW 1.6 km/h 6.4 km/h 90 % 0.0 mm 0 W/m2
02:00 19.2 °C 17.5 °C 1017.5 hPa Calm   4.8 km/h 90 % 0.0 mm 0 W/m2
02:05 19.2 °C 17.5 °C 1017.5 hPa Calm   4.8 km/h 90 % 0.0 mm 0 W/m2
02:10 19.2 °C 17.5 °C 1017.5 hPa West 3.2 km/h 4.8 km/h 90 % 0.0 mm 0 W/m2
02:15 19.2 °C 17.5 °C 1017.2 hPa West 3.2 km/h 6.4 km/h 90 % 0.0 mm 0 W/m2
02:20 19.2 °C 17.5 °C 1017.2 hPa Calm   6.4 km/h 90 % 0.0 mm 0 W/m2
02:25 19.2 °C 17.5 °C 1017.5 hPa West 1.6 km/h 4.8 km/h 90 % 0.0 mm 0 W/m2
02:30 19.1 °C 17.4 °C 1017.2 hPa Calm   4.8 km/h 90 % 0.0 mm 0 W/m2
02:35 19.1 °C 17.4 °C 1017.2 hPa Calm   4.8 km/h 90 % 0.0 mm 0 W/m2
02:40 19.1 °C 17.4 °C 1017.2 hPa Calm   1.6 km/h 90 % 0.0 mm 0 W/m2
02:45 19.1 °C 17.4 °C 1017.2 hPa Calm     90 % 0.0 mm 0 W/m2
02:50 19.1 °C 17.4 °C 1017.2 hPa Calm     90 % 0.0 mm 0 W/m2
02:55 19.1 °C 17.4 °C 1017.2 hPa Calm   8.0 km/h 90 % 0.0 mm 0 W/m2
03:00 19.1 °C 17.4 °C 1017.2 hPa Calm   8.0 km/h 90 % 0.0 mm 0 W/m2
03:05 19.1 °C 17.4 °C 1017.2 hPa Calm   4.8 km/h 90 % 0.0 mm 0 W/m2
03:10 19.1 °C 17.4 °C 1017.2 hPa Calm   3.2 km/h 90 % 0.0 mm 0 W/m2
03:15 19.2 °C 17.5 °C 1017.2 hPa Calm   3.2 km/h 90 % 0.0 mm 0 W/m2
03:20 19.1 °C 17.4 °C 1017.2 hPa Calm   3.2 km/h 90 % 0.0 mm 0 W/m2
03:25 19.1 °C 17.4 °C 1017.2 hPa Calm   1.6 km/h 90 % 0.0 mm 0 W/m2
03:30 19.1 °C 17.4 °C 1017.2 hPa Calm   3.2 km/h 90 % 0.0 mm 0 W/m2
03:35 19.1 °C 17.4 °C 1017.2 hPa Calm   3.2 km/h 90 % 0.0 mm 0 W/m2
03:40 19.1 °C 17.4 °C 1017.2 hPa WSW 1.6 km/h 1.6 km/h 90 % 0.0 mm 0 W/m2
03:45 19.1 °C 17.4 °C 1017.2 hPa Calm   3.2 km/h 90 % 0.0 mm 0 W/m2
03:50 19.0 °C 17.3 °C 1017.2 hPa Calm   3.2 km/h 90 % 0.0 mm 0 W/m2
03:55 19.1 °C 17.4 °C 1017.2 hPa Calm   1.6 km/h 90 % 0.0 mm 0 W/m2
04:00 19.1 °C 17.4 °C 1017.2 hPa Calm   1.6 km/h 90 % 0.0 mm 0 W/m2
04:05 19.0 °C 17.3 °C 1017.2 hPa Calm     90 % 0.0 mm 0 W/m2
04:10 19.0 °C 17.3 °C 1017.2 hPa Calm     90 % 0.0 mm 0 W/m2
04:15 18.9 °C 17.4 °C 1017.2 hPa Calm     91 % 0.0 mm 0 W/m2
04:20 18.9 °C 17.4 °C 1017.2 hPa Calm     91 % 0.0 mm 0 W/m2
04:25 18.9 °C 17.4 °C 1017.2 hPa Calm   1.6 km/h 91 % 0.0 mm 0 W/m2
04:30 18.9 °C 17.4 °C 1017.2 hPa Calm   3.2 km/h 91 % 0.0 mm 0 W/m2
04:35 18.9 °C 17.4 °C 1017.2 hPa Calm   3.2 km/h 91 % 0.0 mm 0 W/m2
04:40 18.8 °C 17.3 °C 1017.2 hPa Calm   3.2 km/h 91 % 0.0 mm 0 W/m2
04:45 18.8 °C 17.3 °C 1016.8 hPa NW 1.6 km/h 4.8 km/h 91 % 0.0 mm 0 W/m2
04:50 18.9 °C 17.4 °C 1016.8 hPa Calm   6.4 km/h 91 % 0.0 mm 0 W/m2
04:55 18.9 °C 17.4 °C 1016.8 hPa NNW 1.6 km/h 6.4 km/h 91 % 0.0 mm 0 W/m2
05:00 18.8 °C 17.3 °C 1016.8 hPa NNW 1.6 km/h 4.8 km/h 91 % 0.0 mm 0 W/m2
05:05 18.8 °C 17.3 °C 1016.8 hPa North 3.2 km/h 4.8 km/h 91 % 0.0 mm 0 W/m2
05:10 18.9 °C 17.4 °C 1016.8 hPa Calm   8.0 km/h 91 % 0.0 mm 0 W/m2
05:20 18.8 °C 17.3 °C 1016.8 hPa North 3.2 km/h 9.7 km/h 91 % 0.0 mm 0 W/m2
05:25 18.8 °C 17.3 °C 1016.8 hPa North 1.6 km/h 8.0 km/h 91 % 0.0 mm 0 W/m2
05:30 18.8 °C 17.2 °C 1016.8 hPa NNW 3.2 km/h 8.0 km/h 90 % 0.0 mm 0 W/m2
05:35 18.9 °C 17.2 °C 1016.8 hPa NNE 4.8 km/h 11.3 km/h 90 % 0.0 mm 0 W/m2
05:40 18.8 °C 17.2 °C 1016.8 hPa NE 6.4 km/h 11.3 km/h 90 % 0.0 mm 0 W/m2
05:45 18.8 °C 17.2 °C 1016.8 hPa North 6.4 km/h 9.7 km/h 90 % 0.0 mm 0 W/m2
05:50 18.8 °C 17.2 °C 1016.8 hPa Calm   9.7 km/h 90 % 0.0 mm 0 W/m2
05:55 18.8 °C 17.2 °C 1016.8 hPa North 6.4 km/h 8.0 km/h 90 % 0.0 mm 0 W/m2
06:00 18.8 °C 17.2 °C 1016.8 hPa North 1.6 km/h 9.7 km/h 90 % 0.0 mm 0 W/m2
06:05 18.8 °C 17.2 °C 1017.2 hPa North 3.2 km/h 9.7 km/h 90 % 0.0 mm 0 W/m2
06:10 18.8 °C 17.2 °C 1017.2 hPa NNE 1.6 km/h 6.4 km/h 90 % 0.0 mm 0 W/m2
06:15 18.8 °C 17.2 °C 1017.5 hPa Calm   8.0 km/h 90 % 0.0 mm 0 W/m2
06:25 18.9 °C 17.2 °C 1017.5 hPa NNE 4.8 km/h 4.8 km/h 90 % 0.0 mm 0 W/m2
06:30 18.9 °C 17.2 °C 1017.5 hPa NNE 3.2 km/h 4.8 km/h 90 % 0.0 mm 0 W/m2
06:35 18.9 °C 17.2 °C 1017.5 hPa NE 3.2 km/h 6.4 km/h 90 % 0.0 mm 0 W/m2
06:40 18.9 °C 17.2 °C 1017.8 hPa Calm   6.4 km/h 90 % 0.0 mm 5 W/m2
06:45 18.9 °C 17.2 °C 1017.8 hPa North 3.2 km/h 8.0 km/h 90 % 0.0 mm 7 W/m2
06:50 18.9 °C 17.3 °C 1018.2 hPa NNE 1.6 km/h 8.0 km/h 90 % 0.0 mm 7 W/m2
06:55 19.0 °C 17.3 °C 1018.2 hPa Calm   8.0 km/h 90 % 0.0 mm 9 W/m2
07:00 19.1 °C 17.4 °C 1018.2 hPa NNE 1.6 km/h 4.8 km/h 90 % 0.0 mm 11 W/m2
07:05 19.1 °C 17.4 °C 1018.2 hPa Calm   4.8 km/h 90 % 0.0 mm 12 W/m2
07:10 19.1 °C 17.4 °C 1018.2 hPa Calm   4.8 km/h 90 % 0.0 mm 18 W/m2
07:15 19.2 °C 17.5 °C 1018.2 hPa NE 1.6 km/h 4.8 km/h 90 % 0.0 mm 32 W/m2
07:20 19.2 °C 17.5 °C 1018.2 hPa Calm   3.2 km/h 90 % 0.0 mm 40 W/m2
07:25 19.2 °C 17.5 °C 1018.2 hPa NE 1.6 km/h 3.2 km/h 90 % 0.0 mm 42 W/m2
07:30 19.2 °C 17.5 °C 1018.2 hPa Calm   3.2 km/h 90 % 0.0 mm 51 W/m2
07:35 19.2 °C 17.5 °C 1018.2 hPa Calm   3.2 km/h 90 % 0.0 mm 49 W/m2
07:40 19.3 °C 17.6 °C 1018.5 hPa Calm   1.6 km/h 90 % 0.0 mm 54 W/m2
07:45 19.4 °C 17.7 °C 1018.2 hPa NE 3.2 km/h 3.2 km/h 90 % 0.0 mm 76 W/m2
07:50 19.4 °C 17.8 °C 1018.2 hPa NE 1.6 km/h 3.2 km/h 90 % 0.0 mm 109 W/m2
07:55 19.6 °C 17.7 °C 1018.2 hPa Calm   3.2 km/h 89 % 0.0 mm 134 W/m2
08:00 19.8 °C 17.9 °C 1018.2 hPa Calm   4.8 km/h 89 % 0.0 mm 155 W/m2
08:05 19.8 °C 17.8 °C 1018.2 hPa Calm   4.8 km/h 88 % 0.0 mm 160 W/m2
08:10 19.8 °C 17.8 °C 1018.2 hPa Calm   4.8 km/h 88 % 0.0 mm 162 W/m2
08:15 19.8 °C 17.8 °C 1018.2 hPa North 1.6 km/h 6.4 km/h 88 % 0.0 mm 100 W/m2
08:20 19.7 °C 17.7 °C 1018.2 hPa NE 1.6 km/h 6.4 km/h 88 % 0.0 mm 102 W/m2
08:25 19.6 °C 17.6 °C 1018.2 hPa NE 3.2 km/h 6.4 km/h 88 % 0.0 mm 113 W/m2
08:30 19.7 °C 17.8 °C 1018.2 hPa Calm   4.8 km/h 89 % 0.0 mm 104 W/m2
08:35 19.6 °C 17.6 °C 1018.5 hPa NE 1.6 km/h 4.8 km/h 88 % 0.0 mm 111 W/m2
08:40 19.8 °C 17.9 °C 1018.2 hPa Calm   4.8 km/h 89 % 0.0 mm 339 W/m2
08:45 20.1 °C 17.8 °C 1018.2 hPa Calm   3.2 km/h 87 % 0.0 mm 320 W/m2
08:50 20.2 °C 17.8 °C 1018.2 hPa Calm   3.2 km/h 86 % 0.0 mm 325 W/m2
08:55 20.6 °C 17.6 °C 1018.5 hPa Calm   9.7 km/h 83 % 0.0 mm 332 W/m2
09:00 20.7 °C 17.9 °C 1018.5 hPa ESE 1.6 km/h 9.7 km/h 84 % 0.0 mm 355 W/m2
09:05 20.9 °C 17.7 °C 1018.2 hPa Calm   4.8 km/h 82 % 0.0 mm 156 W/m2
09:10 20.9 °C 17.9 °C 1018.2 hPa East 8.0 km/h 8.0 km/h 83 % 0.0 mm 388 W/m2
09:15 21.3 °C 17.9 °C 1018.2 hPa ESE 3.2 km/h 8.0 km/h 81 % 0.0 mm 369 W/m2
09:20 21.2 °C 17.6 °C 1018.2 hPa ESE 4.8 km/h 8.0 km/h 80 % 0.0 mm 364 W/m2
09:25 21.4 °C 18.0 °C 1018.2 hPa East 4.8 km/h 8.0 km/h 81 % 0.0 mm 394 W/m2
09:30 21.6 °C 18.0 °C 1018.5 hPa Calm   6.4 km/h 80 % 0.0 mm 422 W/m2
09:35 21.8 °C 18.4 °C 1018.2 hPa NE 8.0 km/h 8.0 km/h 81 % 0.0 mm 432 W/m2
09:40 21.9 °C 18.3 °C 1018.2 hPa Calm   9.7 km/h 80 % 0.0 mm 446 W/m2
09:45 21.9 °C 17.9 °C 1018.5 hPa Calm   9.7 km/h 78 % 0.0 mm 457 W/m2
09:50 22.3 °C 18.3 °C 1018.5 hPa ESE 1.6 km/h 4.8 km/h 78 % 0.0 mm 475 W/m2
09:55 22.6 °C 18.3 °C 1018.5 hPa East 4.8 km/h 8.0 km/h 77 % 0.0 mm 476 W/m2
10:00 22.8 °C 18.2 °C 1018.5 hPa NE 3.2 km/h 8.0 km/h 75 % 0.0 mm 499 W/m2
10:05 22.9 °C 18.0 °C 1018.5 hPa NE 4.8 km/h 8.0 km/h 74 % 0.0 mm 503 W/m2
10:10 23.1 °C 18.2 °C 1018.5 hPa Calm   9.7 km/h 74 % 0.0 mm 527 W/m2
10:15 22.9 °C 17.8 °C 1018.5 hPa East 1.6 km/h 9.7 km/h 73 % 0.0 mm 538 W/m2
10:20 23.3 °C 18.2 °C 1018.5 hPa NE 3.2 km/h 12.9 km/h 73 % 0.0 mm 548 W/m2
10:25 23.4 °C 18.1 °C 1018.5 hPa Calm   12.9 km/h 72 % 0.0 mm 563 W/m2
10:30 23.6 °C 18.4 °C 1018.5 hPa SSE 1.6 km/h 11.3 km/h 73 % 0.0 mm 578 W/m2
10:35 23.6 °C 18.5 °C 1018.5 hPa North 6.4 km/h 11.3 km/h 73 % 0.0 mm 584 W/m2
10:40 23.9 °C 18.5 °C 1018.5 hPa NNE 1.6 km/h 11.3 km/h 72 % 0.0 mm 594 W/m2
10:45 24.2 °C 18.3 °C 1018.5 hPa ESE 3.2 km/h 9.7 km/h 70 % 0.0 mm 617 W/m2
10:50 24.3 °C 18.5 °C 1018.5 hPa NNE 4.8 km/h 8.0 km/h 70 % 0.0 mm 452 W/m2
10:55 24.2 °C 18.6 °C 1018.5 hPa Calm   11.3 km/h 71 % 0.0 mm 628 W/m2
11:00 24.3 °C 18.2 °C 1018.5 hPa Calm   11.3 km/h 69 % 0.0 mm 652 W/m2
11:05 24.6 °C 18.3 °C 1018.5 hPa NNW 4.8 km/h 11.3 km/h 68 % 0.0 mm 668 W/m2
11:10 25.1 °C 18.6 °C 1018.5 hPa NNE 1.6 km/h 12.9 km/h 67 % 0.0 mm 680 W/m2
11:15 25.3 °C 18.0 °C 1018.5 hPa North 4.8 km/h 14.5 km/h 64 % 0.0 mm 691 W/m2
11:20 25.2 °C 17.9 °C 1018.2 hPa NNE 3.2 km/h 14.5 km/h 64 % 0.0 mm 701 W/m2
11:25 25.5 °C 18.4 °C 1018.2 hPa NW 4.8 km/h 12.9 km/h 65 % 0.0 mm 703 W/m2
11:30 25.7 °C 18.4 °C 1018.2 hPa ENE 8.0 km/h 12.9 km/h 64 % 0.0 mm 731 W/m2
11:35 26.2 °C 18.6 °C 1018.5 hPa ENE 8.0 km/h 12.9 km/h 63 % 0.0 mm 728 W/m2
11:40 25.8 °C 18.0 °C 1018.5 hPa East 4.8 km/h 12.9 km/h 62 % 0.0 mm 578 W/m2
11:45 25.7 °C 17.9 °C 1018.5 hPa East 3.2 km/h 11.3 km/h 62 % 0.0 mm 701 W/m2
11:50 25.8 °C 18.7 °C 1018.5 hPa ENE 6.4 km/h 11.3 km/h 65 % 0.0 mm 737 W/m2
11:55 26.3 °C 18.4 °C 1018.5 hPa North 6.4 km/h 11.3 km/h 62 % 0.0 mm 380 W/m2
12:00 25.9 °C 18.4 °C 1018.5 hPa NW 4.8 km/h 9.7 km/h 63 % 0.0 mm 666 W/m2
12:05 26.4 °C 18.3 °C 1018.5 hPa NE 6.4 km/h 11.3 km/h 61 % 0.0 mm 387 W/m2
12:10 26.1 °C 18.7 °C 1018.5 hPa NE 3.2 km/h 11.3 km/h 64 % 0.0 mm 267 W/m2
12:15 26.3 °C 18.2 °C 1018.8 hPa ENE 4.8 km/h 11.3 km/h 61 % 0.0 mm 589 W/m2
12:20 26.2 °C 19.1 °C 1018.5 hPa West 8.0 km/h 12.9 km/h 65 % 0.0 mm 751 W/m2
12:25 25.3 °C 18.7 °C 1018.8 hPa SW 14.5 km/h 16.1 km/h 67 % 0.0 mm 638 W/m2
12:30 24.1 °C 18.7 °C 1018.8 hPa WNW 6.4 km/h 16.1 km/h 72 % 0.0 mm 645 W/m2
12:35 24.1 °C 19.0 °C 1018.8 hPa WSW 4.8 km/h 16.1 km/h 73 % 0.0 mm 802 W/m2
12:40 24.9 °C 19.3 °C 1018.5 hPa SW 3.2 km/h 16.1 km/h 71 % 0.0 mm 840 W/m2
12:45 24.3 °C 18.7 °C 1018.5 hPa WSW 12.9 km/h 16.1 km/h 71 % 0.0 mm 793 W/m2
12:50 24.7 °C 19.5 °C 1018.5 hPa WNW 9.7 km/h 14.5 km/h 73 % 0.0 mm 842 W/m2
12:55 24.7 °C 19.1 °C 1018.5 hPa WNW 11.3 km/h 14.5 km/h 71 % 0.0 mm 838 W/m2
13:00 24.3 °C 18.5 °C 1018.5 hPa West 3.2 km/h 14.5 km/h 70 % 0.0 mm 824 W/m2
13:05 24.5 °C 19.1 °C 1018.8 hPa West 3.2 km/h 16.1 km/h 72 % 0.0 mm 842 W/m2
13:10 23.8 °C 18.9 °C 1018.8 hPa WSW 12.9 km/h 17.7 km/h 74 % 0.0 mm 846 W/m2
13:15 23.8 °C 19.1 °C 1018.8 hPa WSW 4.8 km/h 17.7 km/h 75 % 0.0 mm 826 W/m2
13:20 23.9 °C 18.8 °C 1018.8 hPa WSW 12.9 km/h 17.7 km/h 73 % 0.0 mm 791 W/m2
13:25 23.8 °C 19.1 °C 1018.8 hPa West 11.3 km/h 17.7 km/h 75 % 0.0 mm 837 W/m2
13:30 24.8 °C 19.4 °C 1018.8 hPa West 6.4 km/h 16.1 km/h 72 % 0.0 mm 847 W/m2
13:35 24.4 °C 19.1 °C 1018.8 hPa WNW 12.9 km/h 17.7 km/h 72 % 0.0 mm 858 W/m2
13:40 23.8 °C 18.6 °C 1018.8 hPa West 4.8 km/h 20.9 km/h 73 % 0.0 mm 856 W/m2
13:45 24.1 °C 19.6 °C 1018.8 hPa West 4.8 km/h 20.9 km/h 76 % 0.0 mm 854 W/m2
13:50 24.6 °C 19.4 °C 1018.8 hPa WSW 9.7 km/h 19.3 km/h 73 % 0.0 mm 858 W/m2
13:55 23.8 °C 18.9 °C 1018.5 hPa West 8.0 km/h 19.3 km/h 74 % 0.0 mm 851 W/m2
14:00 24.6 °C 19.2 °C 1018.5 hPa WNW 6.4 km/h 19.3 km/h 72 % 0.0 mm 865 W/m2
14:05 24.7 °C 19.3 °C 1018.5 hPa West 14.5 km/h 19.3 km/h 72 % 0.0 mm 844 W/m2
14:10 24.0 °C 19.1 °C 1018.5 hPa NW 11.3 km/h 19.3 km/h 74 % 0.0 mm 863 W/m2
14:15 24.4 °C 19.0 °C 1018.8 hPa WSW 6.4 km/h 17.7 km/h 72 % 0.0 mm 858 W/m2
14:20 23.8 °C 19.1 °C 1018.5 hPa WNW 8.0 km/h 19.3 km/h 75 % 0.0 mm 861 W/m2
14:25 24.1 °C 19.6 °C 1018.5 hPa WSW 12.9 km/h 19.3 km/h 76 % 0.0 mm 858 W/m2
14:30 25.3 °C 19.6 °C 1018.5 hPa West 14.5 km/h 19.3 km/h 71 % 0.0 mm 861 W/m2
14:35 24.4 °C 19.5 °C 1018.5 hPa West 4.8 km/h 16.1 km/h 74 % 0.0 mm 858 W/m2
14:40 24.3 °C 19.2 °C 1018.2 hPa WSW 8.0 km/h 17.7 km/h 73 % 0.0 mm 853 W/m2
14:45 24.1 °C 19.3 °C 1018.5 hPa WNW 9.7 km/h 19.3 km/h 75 % 0.0 mm 853 W/m2
14:50 23.9 °C 18.8 °C 1018.2 hPa West 14.5 km/h 22.5 km/h 73 % 0.0 mm 851 W/m2
14:55 23.8 °C 19.8 °C 1018.2 hPa West 4.8 km/h 22.5 km/h 78 % 0.0 mm 847 W/m2
15:00 24.9 °C 19.8 °C 1018.2 hPa WSW 8.0 km/h 17.7 km/h 73 % 0.0 mm 844 W/m2
15:05 24.8 °C 19.2 °C 1018.5 hPa West 8.0 km/h 20.9 km/h 71 % 0.0 mm 854 W/m2
15:10 24.2 °C 19.2 °C 1018.5 hPa WNW 11.3 km/h 20.9 km/h 74 % 0.0 mm 842 W/m2
15:15 23.9 °C 19.0 °C 1018.5 hPa West 9.7 km/h 22.5 km/h 74 % 0.0 mm 830 W/m2
15:20 25.2 °C 19.8 °C 1018.5 hPa West 6.4 km/h 22.5 km/h 72 % 0.0 mm 821 W/m2
15:25 23.9 °C 19.0 °C 1018.2 hPa WNW 1.6 km/h 20.9 km/h 74 % 0.0 mm 819 W/m2
15:30 23.9 °C 19.5 °C 1018.2 hPa West 11.3 km/h 20.9 km/h 76 % 0.0 mm 810 W/m2
15:35 24.1 °C 19.6 °C 1018.2 hPa WSW 6.4 km/h 19.3 km/h 76 % 0.0 mm 809 W/m2
15:40 24.8 °C 19.2 °C 1018.2 hPa WSW 11.3 km/h 19.3 km/h 71 % 0.0 mm 802 W/m2
15:45 24.8 °C 19.4 °C 1018.2 hPa WNW 16.1 km/h 16.1 km/h 72 % 0.0 mm 795 W/m2
15:50 25.1 °C 19.3 °C 1018.2 hPa West 11.3 km/h 17.7 km/h 70 % 0.0 mm 789 W/m2
15:55 25.5 °C 19.6 °C 1017.8 hPa West 6.4 km/h 17.7 km/h 70 % 0.0 mm 784 W/m2
16:05 24.6 °C 19.2 °C 1017.8 hPa WSW 9.7 km/h 22.5 km/h 72 % 0.0 mm 766 W/m2
16:10 25.2 °C 19.3 °C 1017.8 hPa West 12.9 km/h 20.9 km/h 70 % 0.0 mm 765 W/m2
16:15 25.7 °C 19.6 °C 1017.8 hPa West 4.8 km/h 20.9 km/h 69 % 0.0 mm 758 W/m2
16:20 25.1 °C 19.3 °C 1017.8 hPa WNW 14.5 km/h 19.3 km/h 70 % 0.0 mm 747 W/m2
16:25 25.2 °C 19.3 °C 1017.8 hPa West 8.0 km/h 19.3 km/h 70 % 0.0 mm 742 W/m2
16:30 25.4 °C 19.5 °C 1017.8 hPa SW 16.1 km/h 17.7 km/h 70 % 0.0 mm 731 W/m2
16:35 24.6 °C 19.0 °C 1017.8 hPa WSW 11.3 km/h 19.3 km/h 71 % 0.0 mm 717 W/m2
16:40 24.9 °C 19.5 °C 1017.8 hPa West 11.3 km/h 20.9 km/h 72 % 0.0 mm 705 W/m2
16:45 24.9 °C 19.3 °C 1017.8 hPa West 4.8 km/h 22.5 km/h 71 % 0.0 mm 696 W/m2
16:50 24.6 °C 19.2 °C 1017.8 hPa West 16.1 km/h 22.5 km/h 72 % 0.0 mm 687 W/m2
17:00 24.2 °C 19.0 °C 1017.5 hPa WNW 6.4 km/h 24.1 km/h 73 % 0.0 mm 668 W/m2
17:05 23.9 °C 19.2 °C 1017.5 hPa West 6.4 km/h 24.1 km/h 75 % 0.0 mm 652 W/m2
17:10 24.3 °C 19.3 °C 1017.5 hPa WSW 9.7 km/h 22.5 km/h 74 % 0.0 mm 647 W/m2
17:15 25.7 °C 19.8 °C 1017.2 hPa WSW 4.8 km/h 22.5 km/h 70 % 0.0 mm 640 W/m2
17:20 25.6 °C 19.7 °C 1017.2 hPa WNW 11.3 km/h 17.7 km/h 70 % 0.0 mm 629 W/m2
17:25 25.6 °C 19.7 °C 1017.2 hPa SW 12.9 km/h 17.7 km/h 70 % 0.0 mm 612 W/m2
17:30 25.8 °C 19.4 °C 1017.2 hPa West 6.4 km/h 12.9 km/h 68 % 0.0 mm 603 W/m2
17:35 25.8 °C 20.2 °C 1016.8 hPa West 9.7 km/h 14.5 km/h 71 % 0.0 mm 587 W/m2
17:40 25.6 °C 19.9 °C 1016.8 hPa West 6.4 km/h 14.5 km/h 71 % 0.0 mm 575 W/m2
17:45 25.8 °C 19.7 °C 1016.8 hPa WSW 4.8 km/h 14.5 km/h 69 % 0.0 mm 564 W/m2
17:50 26.1 °C 20.2 °C 1016.8 hPa West 3.2 km/h 14.5 km/h 70 % 0.0 mm 550 W/m2
17:55 26.8 °C 19.9 °C 1016.8 hPa WNW 8.0 km/h 12.9 km/h 66 % 0.0 mm 541 W/m2
18:00 26.6 °C 19.9 °C 1016.8 hPa WNW 4.8 km/h 12.9 km/h 67 % 0.0 mm 529 W/m2
18:05 26.5 °C 19.6 °C 1016.8 hPa West 6.4 km/h 12.9 km/h 66 % 0.0 mm 515 W/m2
18:10 27.2 °C 20.3 °C 1016.8 hPa SW 1.6 km/h 11.3 km/h 66 % 0.0 mm 504 W/m2
18:15 27.1 °C 20.2 °C 1016.8 hPa SW 6.4 km/h 11.3 km/h 66 % 0.0 mm 489 W/m2
18:20 27.2 °C 19.8 °C 1016.8 hPa WSW 11.3 km/h 11.3 km/h 64 % 0.0 mm 475 W/m2
18:25 26.3 °C 19.9 °C 1016.8 hPa WNW 4.8 km/h 14.5 km/h 68 % 0.0 mm 464 W/m2
18:30 25.9 °C 19.8 °C 1016.8 hPa West 1.6 km/h 16.1 km/h 69 % 0.0 mm 450 W/m2
18:35 26.2 °C 20.1 °C 1016.8 hPa WSW 1.6 km/h 16.1 km/h 69 % 0.0 mm 441 W/m2
18:40 26.2 °C 20.0 °C 1016.8 hPa WNW 4.8 km/h 14.5 km/h 69 % 0.0 mm 424 W/m2
18:45 26.2 °C 20.0 °C 1016.8 hPa SW 8.0 km/h 14.5 km/h 69 % 0.0 mm 408 W/m2
18:50 26.1 °C 19.9 °C 1016.8 hPa West 6.4 km/h 9.7 km/h 69 % 0.0 mm 399 W/m2
18:55 26.2 °C 20.0 °C 1016.8 hPa WNW 4.8 km/h 9.7 km/h 69 % 0.0 mm 385 W/m2
19:00 26.1 °C 20.2 °C 1016.8 hPa WSW 3.2 km/h 11.3 km/h 70 % 0.0 mm 373 W/m2
19:05 26.0 °C 19.9 °C 1016.5 hPa West 3.2 km/h 11.3 km/h 69 % 0.0 mm 360 W/m2
19:10 26.4 °C 20.0 °C 1016.8 hPa WSW 8.0 km/h 17.7 km/h 68 % 0.0 mm 346 W/m2
19:15 25.9 °C 19.6 °C 1016.8 hPa West 8.0 km/h 17.7 km/h 68 % 0.0 mm 330 W/m2
19:20 25.6 °C 19.4 °C 1016.8 hPa WSW 6.4 km/h 16.1 km/h 69 % 0.0 mm 318 W/m2
19:25 25.7 °C 19.8 °C 1016.8 hPa SW 8.0 km/h 14.5 km/h 70 % 0.0 mm 301 W/m2
19:30 25.4 °C 19.6 °C 1016.8 hPa WSW 6.4 km/h 14.5 km/h 70 % 0.0 mm 288 W/m2
19:35 25.2 °C 19.3 °C 1016.8 hPa WNW 6.4 km/h 12.9 km/h 70 % 0.0 mm 274 W/m2
19:40 24.4 °C 19.2 °C 1016.8 hPa West 8.0 km/h 17.7 km/h 73 % 0.0 mm 258 W/m2
19:45 24.4 °C 19.1 °C 1016.8 hPa WNW 4.8 km/h 17.7 km/h 72 % 0.0 mm 236 W/m2
19:50 24.5 °C 19.3 °C 1016.8 hPa WNW 11.3 km/h 16.1 km/h 73 % 0.0 mm 211 W/m2
19:55 24.3 °C 19.2 °C 1016.8 hPa West 6.4 km/h 16.1 km/h 73 % 0.0 mm 190 W/m2
20:00 24.3 °C 19.0 °C 1016.8 hPa WSW 8.0 km/h 19.3 km/h 72 % 0.0 mm 176 W/m2
20:05 24.3 °C 18.9 °C 1016.8 hPa NW 1.6 km/h 19.3 km/h 72 % 0.0 mm 163 W/m2
20:10 24.3 °C 19.0 °C 1016.8 hPa West 4.8 km/h 12.9 km/h 72 % 0.0 mm 158 W/m2
20:15 24.3 °C 18.9 °C 1016.8 hPa West 4.8 km/h 12.9 km/h 72 % 0.0 mm 153 W/m2
20:20 24.3 °C 18.7 °C 1016.8 hPa West 6.4 km/h 12.9 km/h 71 % 0.0 mm 142 W/m2
20:25 24.4 °C 18.8 °C 1016.8 hPa West 4.8 km/h 11.3 km/h 71 % 0.0 mm 125 W/m2
20:30 24.5 °C 18.7 °C 1016.8 hPa NW 4.8 km/h 12.9 km/h 70 % 0.0 mm 107 W/m2
20:35 24.5 °C 18.7 °C 1016.8 hPa WNW 8.0 km/h 12.9 km/h 70 % 0.0 mm 95 W/m2
20:40 24.4 °C 18.3 °C 1017.2 hPa West 6.4 km/h 12.9 km/h 69 % 0.0 mm 72 W/m2
20:45 24.2 °C 18.6 °C 1016.8 hPa Calm   11.3 km/h 71 % 0.0 mm 46 W/m2
20:50 24.0 °C 18.6 °C 1016.8 hPa West 1.6 km/h 11.3 km/h 72 % 0.0 mm 42 W/m2
20:55 23.8 °C 18.5 °C 1016.8 hPa WNW 3.2 km/h 9.7 km/h 72 % 0.0 mm 40 W/m2
21:00 23.7 °C 18.4 °C 1017.2 hPa Calm   9.7 km/h 72 % 0.0 mm 39 W/m2
21:05 23.4 °C 18.5 °C 1017.2 hPa Calm   6.4 km/h 74 % 0.0 mm 35 W/m2
21:10 23.1 °C 18.6 °C 1017.2 hPa Calm   6.4 km/h 76 % 0.0 mm 32 W/m2
21:15 23.1 °C 18.6 °C 1017.2 hPa Calm   3.2 km/h 76 % 0.0 mm 28 W/m2
21:20 23.0 °C 18.7 °C 1017.2 hPa WNW 1.6 km/h 1.6 km/h 77 % 0.0 mm 26 W/m2
21:25 22.8 °C 18.6 °C 1017.2 hPa Calm   3.2 km/h 77 % 0.0 mm 23 W/m2
21:30 22.8 °C 18.7 °C 1017.2 hPa Calm   4.8 km/h 78 % 0.0 mm 21 W/m2
21:35 22.6 °C 18.6 °C 1017.2 hPa Calm   4.8 km/h 78 % 0.0 mm 18 W/m2
21:40 22.3 °C 18.7 °C 1017.2 hPa Calm   4.8 km/h 80 % 0.0 mm 16 W/m2
21:45 22.1 °C 18.5 °C 1017.2 hPa Calm   4.8 km/h 80 % 0.0 mm 12 W/m2
21:50 21.9 °C 18.5 °C 1017.2 hPa Calm   1.6 km/h 81 % 0.0 mm 11 W/m2
21:55 21.7 °C 18.3 °C 1016.8 hPa Calm   1.6 km/h 81 % 0.0 mm 9 W/m2
22:00 21.4 °C 18.2 °C 1016.8 hPa Calm     82 % 0.0 mm 7 W/m2
22:05 21.3 °C 18.1 °C 1016.8 hPa Calm     82 % 0.0 mm 0 W/m2
22:10 21.2 °C 18.2 °C 1016.8 hPa Calm   1.6 km/h 83 % 0.0 mm 0 W/m2
22:20 20.9 °C 17.9 °C 1017.5 hPa WNW 1.6 km/h 4.8 km/h 83 % 0.0 mm 0 W/m2
22:25 20.9 °C 17.9 °C 1017.5 hPa Calm   4.8 km/h 83 % 0.0 mm 0 W/m2
22:30 20.8 °C 17.8 °C 1017.5 hPa Calm   3.2 km/h 83 % 0.0 mm 0 W/m2
22:35 20.6 °C 17.8 °C 1017.5 hPa Calm   1.6 km/h 84 % 0.0 mm 0 W/m2
22:40 20.5 °C 17.7 °C 1017.5 hPa Calm   1.6 km/h 84 % 0.0 mm 0 W/m2
22:50 20.3 °C 17.7 °C 1017.8 hPa Calm   1.6 km/h 85 % 0.0 mm 0 W/m2
22:55 20.4 °C 17.8 °C 1017.8 hPa Calm   1.6 km/h 85 % 0.0 mm 0 W/m2
23:00 20.4 °C 17.8 °C 1017.8 hPa Calm     85 % 0.0 mm 0 W/m2
23:05 20.3 °C 17.7 °C 1017.8 hPa Calm     85 % 0.0 mm 0 W/m2
23:10 20.2 °C 17.6 °C 1017.8 hPa Calm     85 % 0.0 mm 0 W/m2
23:15 20.0 °C 17.6 °C 1017.8 hPa Calm     86 % 0.0 mm 0 W/m2
23:20 19.9 °C 17.7 °C 1017.8 hPa Calm   1.6 km/h 87 % 0.0 mm 0 W/m2
23:25 19.9 °C 17.7 °C 1017.8 hPa Calm   9.7 km/h 87 % 0.0 mm 0 W/m2
23:30 20.3 °C 17.7 °C 1017.8 hPa North 4.8 km/h 9.7 km/h 85 % 0.0 mm 0 W/m2
23:35 20.7 °C 17.3 °C 1017.8 hPa North 3.2 km/h 14.5 km/h 81 % 0.0 mm 0 W/m2
23:40 20.7 °C 17.1 °C 1018.2 hPa NNE 1.6 km/h 14.5 km/h 80 % 0.0 mm 0 W/m2
23:45 20.7 °C 16.9 °C 1018.2 hPa NNE 3.2 km/h 11.3 km/h 79 % 0.0 mm 0 W/m2
23:50 20.7 °C 16.7 °C 1018.2 hPa NNE 6.4 km/h 11.3 km/h 78 % 0.0 mm 0 W/m2
23:55 20.9 °C 16.6 °C 1018.2 hPa NE 3.2 km/h 11.3 km/h 76 % 0.0 mm 0 W/m2
Avec l'autorisation de Weather Underground - 1.75 mb